»·PEaware :: DAL250 KATL-KSLC

DAL250 :: KATL-KSLC

FLIGHT INFORMATION

Flight Status: Arrived
Operator:
Delta Air Lines
More flights by this operator :: More flights under this callsign
Pilot: Andrew J. (13363)
Aircraft: Unknown
(A359)
More flights by this aircraft type
Origin: KATL Hartsfield-Jackson Atlanta
United States
Destination: KSLC Salt Lake City Intl
United States
More flights between these airports :: More routes between these airports
Route: +CUTTN2 HANKO GAD MEM RZC WENIL EKR LEEHY5
File this flight plan on PilotEdge
Remarks:
Altitude:
(Current/Filed)
38,000ft
Speed:
(Current/Filed)
496kts
Departed: 20-Sep-20 12:00 PM
Arrived: 20-Sep-20 03:14 PM
Distance/Time
Traveled:
1378nm/3:13
Distance/Time
To Go:
Arrived

Flight Plot

Page will automatically refresh every two minutes.

Flight plan parsing failed; only flown route is shown


Map Options




Map Legend


Flown Route
Filed Route
Departure Airport
Arrival Airport
Navaid (VOR, NDB)
Fix

Horizontal Profiles

Position Reports

Time Latitude Longitude Heading Altitude Ground
Speed
20-Sep-20 11:54 33.638268 -84.423861 270 1031ft 0kts
20-Sep-20 11:55 33.637877 -84.424085 188 1031ft 7kts
20-Sep-20 11:56 33.636612 -84.428007 271 1031ft 20kts
20-Sep-20 11:57 33.636639 -84.436818 270 1031ft 32kts
20-Sep-20 11:58 33.636355 -84.447560 221 1031ft 19kts
20-Sep-20 11:59 33.634706 -84.435134 89 1025ft 129kts
20-Sep-20 12:00 33.630458 -84.380496 129 2897ft 185kts
20-Sep-20 12:01 33.577137 -84.407095 217 4866ft 267kts
20-Sep-20 12:02 33.514675 -84.463077 214 8026ft 289kts
20-Sep-20 12:03 33.490266 -84.543962 294 10878ft 307kts
20-Sep-20 12:04 33.527778 -84.647538 292 12307ft 370kts
20-Sep-20 12:05 33.567591 -84.770196 292 14240ft 409kts
20-Sep-20 12:06 33.608953 -84.900309 292 16825ft 424kts
20-Sep-20 12:07 33.651229 -85.034025 293 19310ft 434kts
20-Sep-20 12:08 33.694252 -85.170662 294 21746ft 443kts
20-Sep-20 12:09 33.739009 -85.313160 287 23151ft 473kts
20-Sep-20 12:10 33.785453 -85.462696 286 25394ft 480kts
20-Sep-20 12:11 33.832275 -85.613794 286 27506ft 484kts
20-Sep-20 12:12 33.879186 -85.766257 285 29499ft 486kts
20-Sep-20 12:13 33.925884 -85.918514 286 31244ft 484kts
20-Sep-20 12:14 33.971379 -86.067487 287 33610ft 462kts
20-Sep-20 12:15 34.012750 -86.211157 286 35263ft 452kts
20-Sep-20 12:16 34.053163 -86.354176 286 36439ft 449kts
20-Sep-20 12:17 34.093307 -86.496563 286 37360ft 449kts
20-Sep-20 12:18 34.133651 -86.638713 286 38147ft 449kts
20-Sep-20 12:19 34.173639 -86.781602 285 38318ft 449kts
20-Sep-20 12:20 34.213358 -86.924523 285 38318ft 449kts
20-Sep-20 12:21 34.253176 -87.068531 285 38318ft 454kts
20-Sep-20 12:22 34.293062 -87.213498 286 38314ft 455kts
20-Sep-20 12:23 34.332769 -87.358578 286 38296ft 456kts
20-Sep-20 12:24 34.372456 -87.504357 285 38290ft 456kts
20-Sep-20 12:25 34.411889 -87.649995 285 38296ft 456kts
20-Sep-20 12:26 34.451055 -87.795835 285 38299ft 456kts
20-Sep-20 12:27 34.490371 -87.942727 285 38299ft 456kts
20-Sep-20 12:28 34.529386 -88.089178 285 38299ft 456kts
20-Sep-20 12:29 34.568183 -88.235561 285 38295ft 455kts
20-Sep-20 12:30 34.606836 -88.382201 285 38286ft 456kts
20-Sep-20 12:31 34.645398 -88.529309 285 38283ft 456kts
20-Sep-20 12:32 34.683645 -88.676109 284 38284ft 456kts
20-Sep-20 12:33 34.721620 -88.822956 284 38281ft 456kts
20-Sep-20 12:34 34.759542 -88.970265 285 38281ft 459kts
20-Sep-20 12:35 34.797636 -89.118796 285 38281ft 461kts
20-Sep-20 12:36 34.835681 -89.267947 285 38277ft 461kts
20-Sep-20 12:37 34.873523 -89.417246 285 38275ft 461kts
20-Sep-20 12:38 34.911077 -89.566334 285 38279ft 461kts
20-Sep-20 12:39 34.948646 -89.716437 285 39107ft 458kts
20-Sep-20 12:40 34.985422 -89.864118 286 39798ft 458kts
20-Sep-20 12:41 35.024375 -90.012781 290 40279ft 460kts
20-Sep-20 12:42 35.070799 -90.159157 290 40289ft 464kts
20-Sep-20 12:43 35.117656 -90.306443 290 40286ft 469kts
20-Sep-20 12:44 35.165211 -90.456034 290 40285ft 475kts
20-Sep-20 12:45 35.212485 -90.606564 290 40285ft 475kts
20-Sep-20 12:46 35.259546 -90.757777 290 40290ft 475kts
20-Sep-20 12:48 35.306318 -90.908736 290 40307ft 475kts
20-Sep-20 12:49 35.353055 -91.060064 289 40316ft 475kts
20-Sep-20 12:50 35.399617 -91.211608 289 40310ft 475kts
20-Sep-20 12:51 35.446022 -91.363621 289 40309ft 476kts
20-Sep-20 12:52 35.492075 -91.515181 289 40313ft 476kts
20-Sep-20 12:53 35.538109 -91.667490 288 40320ft 476kts
20-Sep-20 12:54 35.583733 -91.819692 288 40320ft 475kts
20-Sep-20 12:55 35.629339 -91.972268 288 40320ft 475kts
20-Sep-20 12:56 35.674780 -92.125014 288 40320ft 475kts
20-Sep-20 12:57 35.719995 -92.277787 288 40321ft 476kts
20-Sep-20 12:58 35.764976 -92.430650 288 40326ft 476kts
20-Sep-20 12:59 35.809817 -92.583851 288 40328ft 476kts
20-Sep-20 13:00 35.854332 -92.737043 288 40329ft 475kts
20-Sep-20 13:01 35.898854 -92.891085 288 40334ft 475kts
20-Sep-20 13:02 35.943234 -93.045273 288 40336ft 480kts
20-Sep-20 13:02 35.980320 -93.174740 288 40337ft 482kts
20-Sep-20 13:04 36.032188 -93.356816 288 40337ft 482kts
20-Sep-20 13:05 36.076535 -93.513454 288 40337ft 482kts
20-Sep-20 13:06 36.120815 -93.669904 287 40339ft 482kts
20-Sep-20 13:06 36.157494 -93.800342 287 40330ft 482kts
20-Sep-20 13:07 36.201093 -93.957010 287 40322ft 482kts
20-Sep-20 13:08 36.245865 -94.113568 291 40315ft 483kts
20-Sep-20 13:10 36.314315 -94.288511 295 40309ft 484kts
20-Sep-20 13:10 36.364499 -94.412655 295 40305ft 484kts
20-Sep-20 13:11 36.424710 -94.562309 294 40291ft 484kts
20-Sep-20 13:12 36.484561 -94.712220 293 40279ft 484kts
20-Sep-20 13:13 36.544117 -94.862203 293 40272ft 486kts
20-Sep-20 13:14 36.596031 -95.018347 290 40273ft 492kts
20-Sep-20 13:15 36.647095 -95.176530 290 40273ft 494kts
20-Sep-20 13:16 36.698431 -95.335152 290 40265ft 494kts
20-Sep-20 13:17 36.749702 -95.494312 290 40261ft 494kts
20-Sep-20 13:18 36.800580 -95.653102 290 40264ft 494kts
20-Sep-20 13:19 36.851283 -95.812699 290 40264ft 494kts
20-Sep-20 13:20 36.901754 -95.972097 290 40264ft 494kts
20-Sep-20 13:21 36.951989 -96.131513 290 40264ft 494kts
20-Sep-20 13:22 37.002090 -96.291336 290 40265ft 491kts
20-Sep-20 13:23 37.051426 -96.449634 289 40265ft 486kts
20-Sep-20 13:24 37.100068 -96.606607 289 40265ft 481kts
20-Sep-20 13:25 37.148534 -96.762558 289 40264ft 478kts
20-Sep-20 13:26 37.196449 -96.918602 289 40264ft 479kts
20-Sep-20 13:27 37.244023 -97.074653 289 40264ft 479kts
20-Sep-20 13:28 37.291447 -97.231098 289 40264ft 479kts
20-Sep-20 13:29 37.338709 -97.387891 289 40258ft 479kts
20-Sep-20 13:30 37.385727 -97.544762 289 40249ft 479kts
20-Sep-20 13:31 37.432566 -97.702069 288 40249ft 479kts
20-Sep-20 13:32 37.479071 -97.859417 288 40247ft 479kts
20-Sep-20 13:33 37.525478 -98.016985 288 40239ft 479kts
20-Sep-20 13:34 37.571537 -98.174217 288 40228ft 479kts
20-Sep-20 13:35 37.617505 -98.332049 288 40222ft 479kts
20-Sep-20 13:36 37.663308 -98.490231 288 40213ft 479kts
20-Sep-20 13:37 37.708755 -98.648089 288 40211ft 479kts
20-Sep-20 13:38 37.754079 -98.806931 288 40211ft 479kts
20-Sep-20 13:39 37.798947 -98.964781 288 40211ft 479kts
20-Sep-20 13:40 37.843824 -99.123490 288 40211ft 478kts
20-Sep-20 13:41 37.888355 -99.281851 288 40200ft 479kts
20-Sep-20 13:42 37.932777 -99.440834 288 40179ft 479kts
20-Sep-20 13:43 37.976927 -99.599787 288 40175ft 479kts
20-Sep-20 13:44 38.020837 -99.759170 287 40175ft 479kts
20-Sep-20 13:45 38.064454 -99.918333 287 40174ft 479kts
20-Sep-20 13:46 38.108064 -100.078058 287 40174ft 479kts
20-Sep-20 13:47 38.151845 -100.237695 287 40164ft 479kts
20-Sep-20 13:48 38.195158 -100.398085 287 40143ft 479kts
20-Sep-20 13:49 38.238002 -100.558061 287 40138ft 479kts
20-Sep-20 13:50 38.280591 -100.718362 286 40128ft 478kts
20-Sep-20 13:51 38.322977 -100.879017 286 40113ft 479kts
20-Sep-20 13:52 38.365444 -101.040686 286 40109ft 482kts
20-Sep-20 13:53 38.407691 -101.202615 286 40110ft 482kts
20-Sep-20 13:54 38.449868 -101.365280 286 40109ft 482kts
20-Sep-20 13:55 38.491689 -101.527603 286 40109ft 482kts
20-Sep-20 13:56 38.533393 -101.690610 285 40116ft 482kts
20-Sep-20 13:57 38.574725 -101.853604 286 40133ft 482kts
20-Sep-20 13:58 38.615738 -102.016045 285 40153ft 482kts
20-Sep-20 13:59 38.656823 -102.179800 286 40154ft 482kts
20-Sep-20 14:00 38.699137 -102.342576 287 40151ft 483kts
20-Sep-20 14:01 38.743866 -102.505014 287 40161ft 483kts
20-Sep-20 14:02 38.787937 -102.667144 287 40152ft 482kts
20-Sep-20 14:03 38.831808 -102.830224 287 40142ft 482kts
20-Sep-20 14:04 38.875319 -102.992668 286 40153ft 483kts
20-Sep-20 14:05 38.918794 -103.155778 286 40184ft 480kts
20-Sep-20 14:06 38.961457 -103.317095 286 40214ft 473kts
20-Sep-20 14:07 39.003233 -103.476090 286 40220ft 465kts
20-Sep-20 14:08 39.043914 -103.631850 286 40219ft 457kts
20-Sep-20 14:09 39.084171 -103.787328 285 40218ft 457kts
20-Sep-20 14:10 39.124449 -103.942294 286 40218ft 456kts
20-Sep-20 14:11 39.164734 -104.098285 285 40240ft 462kts
20-Sep-20 14:12 39.204964 -104.256070 285 40280ft 463kts
20-Sep-20 14:13 39.244952 -104.414057 285 40289ft 463kts
20-Sep-20 14:14 39.284703 -104.572098 285 40280ft 463kts
20-Sep-20 14:15 39.322288 -104.730484 276 40239ft 460kts
20-Sep-20 14:16 39.312956 -104.894561 262 40223ft 458kts
20-Sep-20 14:17 39.297416 -105.057499 263 40215ft 458kts
20-Sep-20 14:18 39.292817 -105.222255 267 40218ft 459kts
20-Sep-20 14:19 39.293546 -105.386964 272 40221ft 460kts
20-Sep-20 14:20 39.304148 -105.552051 273 40289ft 461kts
20-Sep-20 14:21 39.315368 -105.716853 272 40405ft 460kts
20-Sep-20 14:22 39.356080 -105.874618 291 40446ft 469kts
20-Sep-20 14:23 39.410930 -106.027041 290 40469ft 468kts
20-Sep-20 14:24 39.465306 -106.180002 290 40474ft 468kts
20-Sep-20 14:25 39.519287 -106.332866 290 40475ft 468kts
20-Sep-20 14:26 39.573193 -106.486324 290 40429ft 469kts
20-Sep-20 14:27 39.627039 -106.640486 290 40333ft 469kts
20-Sep-20 14:28 39.680407 -106.794472 290 40295ft 469kts
20-Sep-20 14:29 39.733742 -106.948848 289 40286ft 469kts
20-Sep-20 14:30 39.786960 -107.103671 289 40285ft 469kts
20-Sep-20 14:31 39.840032 -107.258914 289 40285ft 469kts
20-Sep-20 14:32 39.892780 -107.414022 289 40272ft 469kts
20-Sep-20 14:33 39.944737 -107.567500 289 40250ft 458kts
20-Sep-20 14:34 39.995777 -107.719354 289 40257ft 458kts
20-Sep-20 14:35 40.043348 -107.873039 283 40262ft 454kts
20-Sep-20 14:36 40.070226 -108.032856 273 40263ft 449kts
20-Sep-20 14:37 40.078991 -108.195267 271 40264ft 448kts
20-Sep-20 14:38 40.086178 -108.357467 271 40264ft 448kts
20-Sep-20 14:39 40.093135 -108.520171 271 40264ft 448kts
20-Sep-20 14:40 40.099871 -108.682706 270 40256ft 448kts
20-Sep-20 14:41 40.106748 -108.844733 270 40238ft 448kts
20-Sep-20 14:42 40.113003 -109.007383 270 40225ft 448kts
20-Sep-20 14:43 40.118971 -109.169919 269 40220ft 448kts
20-Sep-20 14:44 40.124630 -109.331212 269 37962ft 446kts
20-Sep-20 14:46 40.130089 -109.493543 270 34192ft 451kts
20-Sep-20 14:47 40.135432 -109.659560 269 31676ft 465kts
20-Sep-20 14:48 40.140674 -109.828706 269 29696ft 462kts
20-Sep-20 14:49 40.145577 -109.996534 269 27713ft 457kts
20-Sep-20 14:50 40.148979 -110.160286 267 25869ft 447kts
20-Sep-20 14:51 40.147761 -110.322001 266 24624ft 443kts
20-Sep-20 14:52 40.146247 -110.482239 266 23640ft 439kts
20-Sep-20 14:53 40.144573 -110.638025 266 22666ft 435kts
20-Sep-20 14:54 40.142674 -110.795567 266 21685ft 430kts
20-Sep-20 14:55 40.140518 -110.953042 266 20703ft 438kts
20-Sep-20 14:56 40.138163 -111.111203 267 19724ft 432kts
20-Sep-20 14:57 40.135665 -111.267207 267 19223ft 430kts
20-Sep-20 14:58 40.132912 -111.423608 267 19220ft 430kts
20-Sep-20 14:59 40.142756 -111.578816 287 19216ft 436kts
20-Sep-20 15:00 40.194801 -111.722536 293 19213ft 437kts
20-Sep-20 15:01 40.247822 -111.866477 293 18436ft 432kts
20-Sep-20 15:01 40.309491 -111.967084 325 17078ft 438kts
20-Sep-20 15:03 40.434313 -112.049873 344 14773ft 422kts
20-Sep-20 15:04 40.542251 -112.066191 352 12726ft 342kts
20-Sep-20 15:04 40.614781 -112.077601 351 10866ft 287kts
20-Sep-20 15:05 40.685606 -112.093841 321 9193ft 241kts
20-Sep-20 15:07 40.666279 -112.165825 178 9038ft 245kts
20-Sep-20 15:07 40.633615 -112.112591 91 9051ft 253kts
20-Sep-20 15:08 40.632510 -112.021131 90 8041ft 243kts
20-Sep-20 15:09 40.664915 -111.969872 6 7046ft 185kts
20-Sep-20 15:10 40.712560 -111.966526 355 5770ft 164kts
20-Sep-20 15:11 40.755972 -111.971158 353 4598ft 154kts
20-Sep-20 15:12 40.792211 -111.975204 353 4241ft 52kts
20-Sep-20 15:13 40.795488 -111.977695 179 4241ft 8kts
20-Sep-20 15:14 40.792034 -111.978335 264 4241ft 13kts
20-Sep-20 15:15 40.791211 -111.982945 181 4241ft 13kts
20-Sep-20 15:16 40.788330 -111.983402 238 4241ft 5kts
20-Sep-20 15:17 40.788151 -111.983967 251 4241ft 0kts

Navigation Log

Ident Type
Flight plan parsing failed, navigation log unavailable